Latest Coastal Weather Observations for Flinders Reef

IDQ60701

Issued at 1:05 pm EST Tuesday 16 September 2014 (issued every 10 minutes, with the page automatically refreshed every 10 minutes)

About coastal observations | Map of coastal stations | Coastal observations for QLD | Marine services | Other Formats
Station Details ID: 200783 Name: FLINDERS REEF Lat: -17.72 Lon: 148.45 Height: 2.6 m
Data from the previous 72 hours. | See also: Recent months at Flinders Reef
Date/Time
EST
Temp

°C
Wind Pressure Rain
since 9am
mm
Weather Cloud Vis
km
Sea
Height
m
Swell
Dir
 
Speed
knots
Gust
knots
hPa Trend Height
m
Period
s
Dir
16/01:00pm 23.6 SE 12 14 1015.1 - - - - - - - - -
16/12:30pm 23.4 SSE 11 13 1015.4 - - - - - - - - -
16/12:24pm 23.7 SSE 12 - 1015.3 - - - - - - - - -
16/12:00pm 23.9 SSE 11 14 1015.8 - - - - - - - - -
16/11:30am 23.6 SE 12 14 1016.1 - - - - - - - - -
16/11:24am 23.6 SE 12 - 1016.1 - - - - - - - - -
16/11:00am 23.8 SE 12 15 1016.4 - - - - - - - - -
16/10:30am 24.0 SE 12 14 1016.8 - - - - - - - - -
16/10:24am 23.6 SE 12 - 1016.7 - - - - - - - - -
16/10:00am 23.5 SE 13 15 1017.0 - - - - - - - - -
16/09:30am 23.8 SE 13 15 1017.2 - - - - - - - - -
16/09:24am 23.6 SE 13 - 1017.1 - - - - - - - - -
16/09:00am 23.6 SE 13 15 1017.1 - - - - - - - - -
16/08:30am 23.6 SE 12 14 1017.2 - - - - - - - - -
16/08:24am 23.5 SE 13 13 1017.0 - - - - - - - - -
16/08:00am 23.4 SE 14 16 1016.8 - - - - - - - - -
16/07:30am 23.3 SE 13 16 1016.5 - - - - - - - - -
16/07:24am 23.6 SE 13 - 1016.3 - - - - - - - - -
16/07:00am 23.3 SE 14 16 1016.2 - - - - - - - - -
 
Date/Time
EST
Temp

°C
Wind Pressure Rain
since 9am
mm
Weather Cloud Vis
km
Sea
Height
m
Swell
Dir
 
Speed
knots
Gust
knots
hPa Trend Height
m
Period
s
Dir
15/06:00pm 22.2 SSE 20 23 1014.4 - - - - - - - - -
15/05:30pm 22.3 SSE 21 24 1014.2 - - - - - - - - -
15/05:24pm 22.8 SE 20 - 1014.1 - - - - - - - - -
15/05:00pm 23.0 SE 20 23 1013.9 - - - - - - - - -
15/04:30pm 23.5 ESE 16 17 1013.9 - - - - - - - - -
15/04:24pm 23.4 ESE 15 - 1013.7 - - - - - - - - -
15/04:00pm 23.4 ESE 16 19 1013.7 - - - - - - - - -
15/03:30pm 23.6 ESE 15 17 1013.6 - - - - - - - - -
15/03:24pm 23.1 ESE 15 - 1013.5 - - - - - - - - -
15/03:00pm 22.7 SSE 15 22 1013.6 - - - - - - - - -
15/02:30pm 23.3 SE 16 18 1013.8 - - - - - - - - -
15/02:24pm 23.2 SSE 17 - 1013.7 - - - - - - - - -
15/02:00pm 23.0 SSE 18 21 1013.8 - - - - - - - - -
15/01:30pm 22.7 SSE 19 22 1014.0 - - - - - - - - -
15/01:24pm 22.8 SSE 19 - 1013.9 - - - - - - - - -
15/01:00pm 23.5 SSE 18 21 1014.3 - - - - - - - - -
15/12:30pm 23.0 SSE 16 20 1014.7 - - - - - - - - -
15/12:24pm 22.7 SSE 17 - 1014.7 - - - - - - - - -
15/12:00pm 22.7 SSE 17 19 1015.2 - - - - - - - - -
15/11:30am 22.8 SSE 17 21 1015.4 - - - - - - - - -
15/11:24am 23.0 SSE 18 - 1015.3 - - - - - - - - -
15/11:00am 23.0 SSE 17 21 1015.8 - - - - - - - - -
15/10:30am 22.9 SSE 18 20 1016.2 - - - - - - - - -
15/10:24am 22.8 SSE 17 - 1016.2 - - - - - - - - -
15/10:00am 22.9 SSE 16 18 1016.3 - - - - - - - - -
15/09:30am 22.9 SSE 16 19 1016.5 - - - - - - - - -
15/09:24am 23.0 SSE 16 - 1016.4 - - - - - - - - -
15/09:00am 22.9 SSE 16 18 1016.6 - - - - - - - - -
15/08:30am 22.7 SSE 17 19 1016.5 - - - - - - - - -
15/08:24am 22.6 SSE 18 - 1016.4 - - - - - - - - -
15/08:00am 22.8 SSE 18 20 1016.3 - - - - - - - - -
15/07:30am 22.8 SE 17 19 1016.0 - - - - - - - - -
15/07:24am 22.9 SE 17 - 1015.8 - - - - - - - - -
15/07:00am 22.5 SE 17 20 1015.7 - - - - - - - - -
 
Date/Time
EST
Temp

°C
Wind Pressure Rain
since 9am
mm
Weather Cloud Vis
km
Sea
Height
m
Swell
Dir
 
Speed
knots
Gust
knots
hPa Trend Height
m
Period
s
Dir
14/06:00pm 23.2 SSE 20 22 1015.1 - - - - - - - - -
14/05:30pm 23.1 SSE 20 23 1014.9 - - - - - - - - -
14/05:24pm 23.1 SSE 20 - 1014.8 - - - - - - - - -
14/05:00pm 23.2 SSE 20 23 1014.9 - - - - - - - - -
14/04:30pm 23.2 SSE 21 24 1014.8 - - - - - - - - -
14/04:24pm 23.2 SSE 21 - 1014.6 - - - - - - - - -
14/04:00pm 23.2 SSE 21 25 1014.5 - - - - - - - - -
14/03:30pm 23.3 SSE 20 24 1014.5 - - - - - - - - -
14/03:24pm 23.2 SSE 20 - 1014.5 - - - - - - - - -
14/03:00pm 23.1 SSE 20 25 1014.6 - - - - - - - - -
14/02:30pm 23.3 SSE 20 23 1014.7 - - - - - - - - -
14/02:24pm 23.0 SSE 20 - 1014.7 - - - - - - - - -
14/02:00pm 23.1 SSE 21 23 1015.0 - - - - - - - - -
14/01:30pm 23.4 SSE 20 24 1015.3 - - - - - - - - -
14/01:24pm 23.5 SSE 21 - 1015.3 - - - - - - - - -
14/01:00pm 23.1 SSE 20 23 1015.5 - - - - - - - - -
14/12:30pm 23.5 SSE 20 23 1015.9 - - - - - - - - -
14/12:24pm 23.1 SSE 20 - 1015.8 - - - - - - - - -
14/12:00pm 23.3 SSE 22 25 1016.3 - - - - - - - - -
14/11:30am 23.2 SSE 21 25 1016.5 - - - - - - - - -
14/11:24am 23.4 SSE 21 - 1016.5 - - - - - - - - -
14/11:00am 23.4 SE 22 25 1016.9 - - - - - - - - -
14/10:30am 23.5 SE 22 25 1017.2 - - - - - - - - -
14/10:24am 23.4 SE 22 - 1017.2 - - - - - - - - -
14/10:00am 23.5 SE 20 24 1017.4 - - - - - - - - -
14/09:30am 23.5 SE 19 23 1017.2 - - - - - - - - -
14/09:24am 23.1 SE 18 - 1017.1 - - - - - - - - -
14/09:00am 23.4 SE 18 21 1017.2 - - - - - - - - -
14/08:30am 23.1 SE 20 23 1017.0 - - - - - - - - -
14/08:24am 23.0 SE 19 - 1016.9 - - - - - - - - -
14/08:00am 23.2 SE 20 23 1016.9 - - - - - - - - -
14/07:30am 22.8 SE 20 24 1016.5 - - - - - - - - -
14/07:24am 22.8 SE 20 - 1016.4 - - - - - - - - -
14/07:00am 22.9 SE 21 25 1016.2 - - - - - - - - -
 
Date/Time
EST
Temp

°C
Wind Pressure Rain
since 9am
mm
Weather Cloud Vis
km
Sea
Height
m
Swell
Dir
 
Speed
knots
Gust
knots
hPa Trend Height
m
Period
s
Dir
13/06:30pm 23.7 SE 20 24 1016.8 - - - - - - - - -
13/06:00pm 23.6 SE 21 24 1016.4 - - - - - - - - -
13/05:30pm 24.1 SE 20 24 1016.2 - - - - - - - - -
13/05:24pm 23.8 SE 21 - 1016.0 - - - - - - - - -
13/05:00pm 23.9 SE 20 24 1015.9 - - - - - - - - -
13/04:30pm 23.6 SE 19 22 1015.6 - - - - - - - - -
13/04:24pm 24.0 SE 19 - 1015.5 - - - - - - - - -
13/04:00pm 24.0 SE 20 23 1015.6 - - - - - - - - -
13/03:30pm 23.8 SE 19 23 1015.7 - - - - - - - - -
13/03:24pm 23.7 SSE 20 - 1015.6 - - - - - - - - -
13/03:00pm 23.7 SE 20 24 1015.8 - - - - - - - - -
13/02:30pm 24.0 SE 19 22 1015.9 - - - - - - - - -
13/02:24pm 23.9 SE 19 - 1015.9 - - - - - - - - -
13/02:00pm 23.9 SSE 17 21 1016.2 - - - - - - - - -
13/01:30pm 23.9 SE 16 19 1016.8 - - - - - - - - -
13/01:24pm 24.1 SE 17 - 1016.8 - - - - - - - - -

Other Formats:

Comma delimited format used in spreadsheet applications
http://www.bom.gov.au/fwo/IDQ60701/IDQ60701.94290.axf

JavaScript Object Notation format (JSON) in row-major order
http://www.bom.gov.au/fwo/IDQ60701/IDQ60701.94290.json